createdAt,value
2023-03-06T00:00:57.301Z,3.10
2023-03-06T00:03:27.630Z,3.10
2023-03-06T00:05:57.354Z,3.10
2023-03-06T00:08:26.726Z,3.10
2023-03-06T00:10:54.905Z,3.10
2023-03-06T00:13:22.464Z,3.00
2023-03-06T00:15:49.765Z,3.00
2023-03-06T00:18:17.112Z,3.00
2023-03-06T00:20:45.219Z,3.00
2023-03-06T00:23:12.882Z,3.00
2023-03-06T00:25:44.469Z,3.00
2023-03-06T00:28:12.363Z,3.00
2023-03-06T00:30:39.950Z,3.00
2023-03-06T00:33:07.314Z,3.10
2023-03-06T00:35:34.639Z,3.00
2023-03-06T00:38:02.029Z,3.00
2023-03-06T00:40:29.271Z,3.00
2023-03-06T00:42:56.579Z,3.00
2023-03-06T00:45:23.921Z,3.00
2023-03-06T00:47:51.293Z,3.00
2023-03-06T00:50:18.757Z,3.00
2023-03-06T00:52:46.034Z,3.00
2023-03-06T00:55:13.253Z,3.00
2023-03-06T00:57:41.172Z,3.00
2023-03-06T01:00:11.054Z,3.00
2023-03-06T01:02:38.473Z,3.00
2023-03-06T01:05:06.279Z,3.00
2023-03-06T01:07:36.412Z,3.10
2023-03-06T01:10:05.581Z,3.10
2023-03-06T01:12:32.829Z,3.10
2023-03-06T01:15:00.184Z,3.10
2023-03-06T01:17:27.441Z,3.10
2023-03-06T01:19:54.687Z,3.10
2023-03-06T01:22:21.913Z,3.10
2023-03-06T01:24:49.178Z,3.00
2023-03-06T01:27:16.431Z,3.00
2023-03-06T01:29:44.176Z,3.00
2023-03-06T01:32:11.582Z,2.90
2023-03-06T01:34:39.026Z,2.90
2023-03-06T01:37:06.285Z,2.90
2023-03-06T01:39:33.527Z,2.90
2023-03-06T01:42:00.749Z,2.90
2023-03-06T01:44:28.114Z,2.90
2023-03-06T01:46:55.460Z,2.90
2023-03-06T01:49:32.190Z,2.90
2023-03-06T01:52:02.516Z,2.90
2023-03-06T01:54:35.668Z,2.80
2023-03-06T01:57:19.040Z,2.80
2023-03-06T01:59:49.426Z,2.70
2023-03-06T02:02:16.836Z,2.80
2023-03-06T02:04:44.485Z,2.80
2023-03-06T02:07:12.659Z,2.70
2023-03-06T02:09:40.029Z,2.60
2023-03-06T02:12:13.364Z,2.70
2023-03-06T02:14:42.266Z,2.70
2023-03-06T02:17:12.326Z,2.50
2023-03-06T02:19:54.255Z,2.30
2023-03-06T02:22:22.416Z,2.40
2023-03-06T02:25:06.658Z,2.40
2023-03-06T02:27:34.213Z,2.50
2023-03-06T02:30:06.700Z,2.60
2023-03-06T02:32:34.105Z,2.70
2023-03-06T02:35:01.550Z,2.80
2023-03-06T02:37:29.024Z,2.80
2023-03-06T02:40:09.212Z,2.90
2023-03-06T02:42:36.663Z,2.90
2023-03-06T02:45:07.408Z,3.00
2023-03-06T02:47:34.643Z,3.00
2023-03-06T02:50:01.965Z,3.00
2023-03-06T02:52:29.308Z,3.00
2023-03-06T02:54:56.602Z,3.00
2023-03-06T02:57:24.431Z,3.10
2023-03-06T02:59:51.750Z,3.10
2023-03-06T03:02:19.221Z,3.00
2023-03-06T03:04:46.578Z,3.00
2023-03-06T03:07:14.357Z,3.00
2023-03-06T03:09:42.564Z,3.00
2023-03-06T03:12:10.159Z,3.00
2023-03-06T03:14:37.618Z,3.00
2023-03-06T03:17:04.975Z,3.00
2023-03-06T03:19:32.550Z,3.00
2023-03-06T03:21:59.843Z,2.90
2023-03-06T03:24:27.540Z,2.90
2023-03-06T03:26:55.560Z,2.90
2023-03-06T03:29:24.543Z,2.90
2023-03-06T03:31:53.168Z,2.90
2023-03-06T03:34:20.669Z,2.90
2023-03-06T03:36:47.945Z,2.90
2023-03-06T03:39:16.894Z,2.90
2023-03-06T03:41:44.181Z,2.90
2023-03-06T03:44:12.992Z,2.90
2023-03-06T03:46:40.277Z,2.90
2023-03-06T03:49:12.742Z,2.90
2023-03-06T03:51:40.371Z,2.90
2023-03-06T03:54:07.840Z,2.90
2023-03-06T03:56:41.831Z,2.90
2023-03-06T03:59:15.754Z,3.00
2023-03-06T04:01:53.018Z,2.90
2023-03-06T04:04:20.430Z,2.90
2023-03-06T04:06:48.714Z,2.90
2023-03-06T04:09:17.979Z,2.90
2023-03-06T04:11:45.611Z,3.00
2023-03-06T04:14:12.958Z,3.00
2023-03-06T04:16:40.176Z,3.00
2023-03-06T04:19:07.485Z,2.90
2023-03-06T04:21:35.393Z,2.90
2023-03-06T04:24:02.693Z,2.90
2023-03-06T04:26:30.223Z,2.90
2023-03-06T04:28:58.498Z,2.90
2023-03-06T04:31:25.960Z,2.90
2023-03-06T04:33:53.526Z,2.90
2023-03-06T04:36:28.440Z,2.90
2023-03-06T04:39:00.111Z,2.90
2023-03-06T04:41:27.959Z,2.80
2023-03-06T04:43:55.347Z,2.80
2023-03-06T04:46:22.730Z,2.70
2023-03-06T04:48:49.958Z,2.60
2023-03-06T04:51:17.291Z,2.60
2023-03-06T04:53:44.502Z,2.60
2023-03-06T04:56:11.720Z,2.70
2023-03-06T04:58:39.047Z,2.60
2023-03-06T05:01:06.586Z,2.60
2023-03-06T05:03:33.828Z,2.60
2023-03-06T05:06:01.268Z,2.60
2023-03-06T05:08:29.138Z,2.50
2023-03-06T05:11:01.041Z,2.50
2023-03-06T05:13:28.367Z,2.50
2023-03-06T05:15:55.740Z,2.50
2023-03-06T05:18:23.040Z,2.50
2023-03-06T05:20:50.289Z,2.60
2023-03-06T05:23:17.515Z,2.60
2023-03-06T05:25:44.752Z,2.60
2023-03-06T05:28:12.031Z,2.60
2023-03-06T05:30:39.750Z,2.70
2023-03-06T05:33:07.036Z,2.70
2023-03-06T05:35:34.293Z,2.70
2023-03-06T05:38:01.612Z,2.70
2023-03-06T05:40:28.879Z,2.70
2023-03-06T05:42:56.161Z,2.80
2023-03-06T05:45:23.378Z,2.70
2023-03-06T05:47:50.614Z,2.80
2023-03-06T05:50:18.026Z,2.70
2023-03-06T05:52:45.277Z,2.70
2023-03-06T05:55:12.860Z,2.70
2023-03-06T05:57:40.169Z,2.70
2023-03-06T06:00:09.129Z,2.60
2023-03-06T06:02:45.369Z,2.60
2023-03-06T06:05:13.409Z,2.70
2023-03-06T06:07:41.259Z,2.60
2023-03-06T06:10:09.505Z,2.70
2023-03-06T06:12:36.779Z,2.70
2023-03-06T06:15:04.660Z,2.70
2023-03-06T06:17:31.912Z,2.70
2023-03-06T06:19:59.293Z,2.60
2023-03-06T06:22:26.571Z,2.60
2023-03-06T06:24:53.890Z,2.70
2023-03-06T06:27:21.203Z,2.70
2023-03-06T06:29:52.082Z,2.70
2023-03-06T06:32:19.706Z,2.70
2023-03-06T06:34:47.139Z,2.70
2023-03-06T06:37:14.431Z,2.70
2023-03-06T06:39:42.750Z,2.80
2023-03-06T06:42:29.933Z,2.80
2023-03-06T06:44:57.436Z,2.90
2023-03-06T06:47:25.808Z,2.90
2023-03-06T06:49:54.513Z,2.90
2023-03-06T06:52:23.405Z,3.00
2023-03-06T06:54:51.214Z,3.00
2023-03-06T06:57:18.775Z,2.90
2023-03-06T06:59:46.051Z,3.00
2023-03-06T07:02:15.881Z,3.00
2023-03-06T07:05:00.370Z,3.00
2023-03-06T07:07:30.080Z,3.00
2023-03-06T07:09:57.368Z,3.00
2023-03-06T07:12:24.641Z,3.10
2023-03-06T07:14:51.966Z,3.20
2023-03-06T07:17:19.305Z,3.10
2023-03-06T07:19:46.580Z,3.20
2023-03-06T07:22:14.129Z,3.20
2023-03-06T07:24:41.414Z,3.30
2023-03-06T07:27:08.645Z,3.30
2023-03-06T07:29:36.045Z,3.40
2023-03-06T07:32:03.503Z,3.40
2023-03-06T07:34:30.797Z,3.50
2023-03-06T07:36:58.130Z,3.50
2023-03-06T07:39:25.496Z,3.60
2023-03-06T07:41:53.482Z,3.70
2023-03-06T07:44:20.848Z,3.80
2023-03-06T07:46:48.426Z,3.80
2023-03-06T07:49:16.681Z,3.90
2023-03-06T07:51:44.247Z,3.90
2023-03-06T07:54:11.508Z,4.00
2023-03-06T07:56:38.844Z,4.00
2023-03-06T07:59:06.080Z,4.20
2023-03-06T08:01:33.452Z,4.20
2023-03-06T08:04:02.149Z,4.20
2023-03-06T08:06:29.512Z,4.20
2023-03-06T08:08:57.314Z,4.20
2023-03-06T08:11:27.183Z,4.20
2023-03-06T08:13:55.737Z,4.10
2023-03-06T08:16:29.268Z,4.10
2023-03-06T08:18:57.282Z,4.10
2023-03-06T08:21:27.355Z,4.10
2023-03-06T08:23:54.694Z,4.20
2023-03-06T08:26:25.353Z,4.20
2023-03-06T08:28:54.237Z,4.20
2023-03-06T08:31:33.001Z,4.00
2023-03-06T08:34:03.233Z,3.90
2023-03-06T08:36:30.811Z,3.80
2023-03-06T08:38:58.676Z,3.80
2023-03-06T08:41:26.405Z,3.80
2023-03-06T08:43:53.677Z,3.90
2023-03-06T08:46:23.804Z,3.90
2023-03-06T08:48:51.634Z,3.90
2023-03-06T08:51:19.892Z,3.90
2023-03-06T08:53:47.714Z,3.90
2023-03-06T08:56:16.791Z,4.00
2023-03-06T08:58:44.276Z,4.10
2023-03-06T09:01:16.840Z,4.20
2023-03-06T09:03:44.322Z,4.20
2023-03-06T09:06:11.781Z,4.30
2023-03-06T09:08:42.876Z,4.30
2023-03-06T09:11:15.454Z,4.30
2023-03-06T09:13:43.627Z,4.50
2023-03-06T09:16:11.784Z,4.70
2023-03-06T09:18:39.747Z,4.80
2023-03-06T09:21:08.458Z,5.20
2023-03-06T09:23:37.041Z,5.30
2023-03-06T09:26:04.538Z,5.30
2023-03-06T09:28:32.346Z,5.40
2023-03-06T09:30:59.727Z,5.60
2023-03-06T09:33:28.644Z,5.60
2023-03-06T09:35:57.095Z,5.60
2023-03-06T09:38:28.165Z,5.70
2023-03-06T09:40:58.289Z,6.60
2023-03-06T09:43:39.292Z,7.10
2023-03-06T09:46:18.733Z,6.80
2023-03-06T09:48:52.276Z,6.40
2023-03-06T09:51:26.088Z,6.10
2023-03-06T09:54:05.030Z,5.90
2023-03-06T09:56:35.673Z,5.60
2023-03-06T09:59:26.850Z,5.60
2023-03-06T10:02:19.141Z,5.40
2023-03-06T10:04:51.765Z,5.40
2023-03-06T10:07:27.911Z,5.40
2023-03-06T10:10:02.532Z,5.50
2023-03-06T10:12:35.958Z,5.40
2023-03-06T10:15:26.699Z,5.50
2023-03-06T10:17:54.529Z,5.70
2023-03-06T10:20:27.978Z,6.10
2023-03-06T10:23:05.392Z,6.00
2023-03-06T10:25:53.459Z,6.10
2023-03-06T10:28:52.447Z,6.10
2023-03-06T10:31:25.601Z,6.30
2023-03-06T10:34:18.163Z,6.50
2023-03-06T10:36:45.469Z,7.00
2023-03-06T10:39:21.406Z,7.20
2023-03-06T10:41:50.055Z,7.30
2023-03-06T10:44:19.707Z,7.70
2023-03-06T10:46:49.597Z,9.20
2023-03-06T10:49:22.713Z,10.30
2023-03-06T10:52:05.577Z,11.10
2023-03-06T10:54:42.404Z,10.60
2023-03-06T10:57:35.997Z,10.70
2023-03-06T11:00:22.664Z,10.20
2023-03-06T11:03:23.285Z,9.30
2023-03-06T11:06:12.271Z,9.00
2023-03-06T11:08:42.353Z,8.80
2023-03-06T11:11:36.672Z,8.90
2023-03-06T11:14:14.962Z,8.90
2023-03-06T11:16:53.239Z,8.90
2023-03-06T11:19:29.089Z,9.10
2023-03-06T11:22:19.749Z,8.90
2023-03-06T11:24:50.643Z,9.30
2023-03-06T11:27:34.410Z,9.20
2023-03-06T11:30:14.482Z,9.40
2023-03-06T11:32:55.281Z,9.30
2023-03-06T11:35:26.483Z,9.30
2023-03-06T11:38:04.257Z,9.60
2023-03-06T11:40:40.272Z,9.80
2023-03-06T11:43:41.413Z,9.90
2023-03-06T11:46:27.799Z,10.20
2023-03-06T11:49:06.360Z,10.50
2023-03-06T11:51:38.903Z,10.30
2023-03-06T11:54:08.492Z,9.60
2023-03-06T11:56:49.946Z,9.30
2023-03-06T11:59:54.732Z,9.10
2023-03-06T12:02:39.271Z,9.10
2023-03-06T12:05:25.158Z,8.70
2023-03-06T12:08:01.905Z,8.70
2023-03-06T12:10:57.503Z,8.70
2023-03-06T12:16:47.544Z,8.90
2023-03-06T12:19:39.721Z,9.20
2023-03-06T12:22:22.123Z,9.60
2023-03-06T12:25:09.449Z,9.60
2023-03-06T12:27:48.162Z,9.50
2023-03-06T12:30:32.519Z,9.30
2023-03-06T12:33:17.668Z,8.90
2023-03-06T12:35:50.782Z,8.60
2023-03-06T12:38:29.546Z,8.50
2023-03-06T12:41:18.397Z,8.70
2023-03-06T12:44:30.311Z,8.60
2023-03-06T12:47:02.511Z,8.60
2023-03-06T12:49:33.438Z,8.60
2023-03-06T12:52:02.122Z,8.30
2023-03-06T12:54:33.074Z,8.20
2023-03-06T12:57:01.059Z,8.40
2023-03-06T12:59:54.798Z,8.90
2023-03-06T13:02:47.707Z,9.10
2023-03-06T13:05:50.095Z,8.90
2023-03-06T13:08:46.489Z,9.00
2023-03-06T13:11:42.767Z,9.10
2023-03-06T13:14:34.235Z,9.50
2023-03-06T13:17:21.305Z,9.20
2023-03-06T13:20:09.227Z,9.10
2023-03-06T13:22:36.574Z,8.80
2023-03-06T13:25:26.707Z,9.10
2023-03-06T13:27:53.905Z,9.10
2023-03-06T13:30:38.176Z,8.90
2023-03-06T13:33:25.701Z,8.80
2023-03-06T13:35:59.935Z,8.70
2023-03-06T13:38:34.083Z,8.60
2023-03-06T13:41:23.024Z,8.40
2023-03-06T13:43:59.363Z,8.40
2023-03-06T13:46:31.242Z,8.30
2023-03-06T13:49:10.717Z,8.50
2023-03-06T13:51:44.898Z,8.30
2023-03-06T13:54:33.899Z,8.00
2023-03-06T13:57:21.479Z,8.00
2023-03-06T14:00:16.400Z,7.90
2023-03-06T14:02:58.796Z,7.90
2023-03-06T14:05:47.046Z,8.10
2023-03-06T14:08:17.179Z,8.10
2023-03-06T14:10:46.920Z,8.20
2023-03-06T14:13:16.154Z,8.00
2023-03-06T14:15:51.911Z,8.10
2023-03-06T14:18:30.867Z,8.20
2023-03-06T14:21:04.371Z,8.30
2023-03-06T14:23:42.215Z,8.10
2023-03-06T14:26:25.787Z,7.80
2023-03-06T14:28:53.050Z,7.70
2023-03-06T14:31:23.329Z,7.90
2023-03-06T14:33:55.186Z,7.90
2023-03-06T14:36:28.052Z,7.80
2023-03-06T14:39:05.477Z,7.80
2023-03-06T14:41:34.637Z,7.90
2023-03-06T14:44:23.176Z,7.90
2023-03-06T14:46:55.574Z,7.80
2023-03-06T14:49:25.137Z,8.10
2023-03-06T14:51:55.782Z,8.20
2023-03-06T14:54:29.118Z,7.80
2023-03-06T14:57:02.600Z,7.70
2023-03-06T14:59:32.922Z,7.50
2023-03-06T15:02:04.254Z,7.40
2023-03-06T15:04:56.915Z,7.30
2023-03-06T15:07:32.032Z,7.40
2023-03-06T15:10:00.530Z,7.40
2023-03-06T15:12:29.569Z,7.30
2023-03-06T15:14:58.003Z,7.20
2023-03-06T15:17:29.774Z,7.20
2023-03-06T15:19:59.905Z,7.30
2023-03-06T15:22:35.586Z,7.20
2023-03-06T15:25:21.927Z,7.20
2023-03-06T15:27:54.908Z,6.90
2023-03-06T15:30:34.038Z,6.80
2023-03-06T15:33:19.407Z,6.70
2023-03-06T15:36:01.951Z,6.40
2023-03-06T15:38:36.941Z,6.00
2023-03-06T15:41:06.376Z,5.60
2023-03-06T15:43:40.342Z,5.40
2023-03-06T15:46:07.887Z,5.00
2023-03-06T15:48:35.459Z,4.80
2023-03-06T15:51:03.525Z,4.80
2023-03-06T15:53:30.862Z,4.80
2023-03-06T15:55:59.194Z,4.90
2023-03-06T15:58:30.359Z,4.90
2023-03-06T16:00:57.683Z,4.80
2023-03-06T16:03:24.982Z,4.70
2023-03-06T16:05:52.257Z,4.80
2023-03-06T16:08:19.691Z,4.80
2023-03-06T16:10:47.732Z,4.80
2023-03-06T16:13:41.290Z,4.90
2023-03-06T16:16:19.267Z,4.80
2023-03-06T16:18:46.663Z,4.90
2023-03-06T16:21:14.250Z,4.90
2023-03-06T16:23:41.552Z,4.90
2023-03-06T16:26:45.317Z,4.80
2023-03-06T16:29:20.673Z,4.70
2023-03-06T16:31:48.513Z,4.70
2023-03-06T16:34:16.225Z,4.70
2023-03-06T16:36:43.547Z,4.70
2023-03-06T16:39:14.847Z,4.70
2023-03-06T16:41:42.106Z,4.60
2023-03-06T16:44:10.177Z,4.60
2023-03-06T16:46:40.678Z,4.60
2023-03-06T16:49:12.518Z,4.70
2023-03-06T16:51:40.410Z,4.60
2023-03-06T16:54:07.656Z,4.70
2023-03-06T16:56:34.918Z,4.70
2023-03-06T16:59:02.137Z,4.70
2023-03-06T17:01:29.422Z,4.80
2023-03-06T17:03:56.682Z,4.70
2023-03-06T17:06:24.016Z,4.80
2023-03-06T17:08:51.559Z,4.80
2023-03-06T17:11:20.273Z,4.80
2023-03-06T17:13:48.213Z,4.90
2023-03-06T17:16:16.442Z,4.90
2023-03-06T17:18:45.352Z,5.00
2023-03-06T17:21:15.582Z,5.00
2023-03-06T17:23:44.339Z,5.00
2023-03-06T17:26:13.617Z,5.00
2023-03-06T17:28:41.638Z,5.00
2023-03-06T17:31:13.399Z,5.00
2023-03-06T17:33:40.645Z,4.90
2023-03-06T17:36:08.904Z,4.90
2023-03-06T17:38:36.989Z,4.90
2023-03-06T17:41:05.946Z,4.80
2023-03-06T17:43:33.790Z,4.90
2023-03-06T17:46:12.308Z,4.80
2023-03-06T17:48:40.387Z,4.80
2023-03-06T17:51:08.305Z,4.80
2023-03-06T17:53:36.377Z,4.80
2023-03-06T17:56:05.470Z,4.80
2023-03-06T17:58:32.949Z,4.70
2023-03-06T18:01:00.777Z,4.80
2023-03-06T18:03:28.022Z,4.80
2023-03-06T18:06:06.044Z,4.80
2023-03-06T18:08:33.430Z,4.80
2023-03-06T18:11:04.069Z,4.80
2023-03-06T18:13:32.752Z,4.80
2023-03-06T18:16:00.807Z,4.80
2023-03-06T18:18:31.349Z,4.80
2023-03-06T18:21:02.794Z,4.80
2023-03-06T18:23:30.415Z,4.80
2023-03-06T18:26:11.812Z,4.90
2023-03-06T18:28:42.309Z,4.90
2023-03-06T18:31:24.391Z,4.90
2023-03-06T18:33:57.017Z,4.90
2023-03-06T18:36:26.540Z,4.90
2023-03-06T18:38:53.911Z,4.90
2023-03-06T18:41:21.859Z,5.00
2023-03-06T18:43:54.241Z,5.00
2023-03-06T18:46:22.476Z,5.00
2023-03-06T18:48:50.270Z,5.00
2023-03-06T18:51:19.296Z,5.00
2023-03-06T18:53:46.839Z,5.10
2023-03-06T18:56:21.951Z,5.00
2023-03-06T18:58:50.416Z,5.10
2023-03-06T19:01:18.553Z,5.10
2023-03-06T19:03:46.007Z,5.00
2023-03-06T19:06:16.798Z,5.00
2023-03-06T19:08:44.720Z,4.90
2023-03-06T19:11:17.981Z,4.90
2023-03-06T19:13:45.240Z,4.80
2023-03-06T19:16:21.146Z,4.80
2023-03-06T19:18:48.806Z,4.80
2023-03-06T19:21:19.064Z,4.80
2023-03-06T19:23:46.950Z,4.80
2023-03-06T19:26:15.132Z,4.80
2023-03-06T19:28:43.158Z,4.80
2023-03-06T19:31:25.591Z,4.80
2023-03-06T19:33:54.023Z,4.70
2023-03-06T19:36:27.394Z,4.80
2023-03-06T19:38:56.602Z,4.80
2023-03-06T19:41:24.462Z,4.80
2023-03-06T19:43:54.878Z,4.80
2023-03-06T19:46:23.822Z,4.70
2023-03-06T19:48:56.483Z,4.80
2023-03-06T19:51:24.407Z,4.70
2023-03-06T19:53:52.232Z,4.80
2023-03-06T19:56:22.826Z,4.80
2023-03-06T19:58:50.861Z,4.80
2023-03-06T20:01:20.462Z,4.80
2023-03-06T20:03:49.391Z,4.80
2023-03-06T20:06:18.810Z,4.80
2023-03-06T20:08:47.072Z,4.70
2023-03-06T20:11:29.741Z,4.70
2023-03-06T20:14:01.943Z,4.70
2023-03-06T20:16:30.041Z,4.70
2023-03-06T20:18:59.927Z,4.70
2023-03-06T20:21:29.822Z,4.70
2023-03-06T20:23:58.278Z,4.70
2023-03-06T20:26:28.207Z,4.80
2023-03-06T20:28:56.638Z,4.80
2023-03-06T20:31:27.001Z,4.70
2023-03-06T20:33:57.477Z,4.70
2023-03-06T20:36:28.858Z,4.80
2023-03-06T20:38:58.522Z,4.70
2023-03-06T20:41:28.524Z,4.70
2023-03-06T20:43:57.581Z,4.80
2023-03-06T20:46:24.922Z,4.70
2023-03-06T20:48:54.119Z,4.70
2023-03-06T20:51:31.337Z,4.70
2023-03-06T20:54:00.774Z,4.70
2023-03-06T20:56:31.256Z,4.70
2023-03-06T20:58:58.879Z,4.70
2023-03-06T21:01:34.620Z,4.60
2023-03-06T21:04:04.395Z,4.60
2023-03-06T21:06:32.086Z,4.50
2023-03-06T21:09:00.960Z,4.40
2023-03-06T21:11:28.656Z,4.40
2023-03-06T21:13:56.682Z,4.20
2023-03-06T21:16:25.801Z,4.10
2023-03-06T21:18:55.355Z,4.10
2023-03-06T21:21:25.129Z,4.10
2023-03-06T21:23:52.532Z,4.00
2023-03-06T21:26:22.373Z,4.00
2023-03-06T21:28:50.198Z,4.00
2023-03-06T21:31:19.434Z,3.90
2023-03-06T21:33:49.402Z,3.90
2023-03-06T21:36:18.920Z,3.80
2023-03-06T21:38:48.000Z,3.70
2023-03-06T21:41:21.198Z,3.70
2023-03-06T21:43:48.506Z,3.70
2023-03-06T21:46:16.009Z,3.70
2023-03-06T21:48:43.411Z,3.70
2023-03-06T21:51:15.966Z,3.70
2023-03-06T21:53:44.361Z,3.70
2023-03-06T21:56:12.651Z,3.70
2023-03-06T21:58:40.514Z,3.70
2023-03-06T22:01:13.546Z,3.70
2023-03-06T22:03:40.857Z,3.70
2023-03-06T22:06:20.357Z,3.70
2023-03-06T22:08:48.069Z,3.70
2023-03-06T22:11:17.957Z,3.70
2023-03-06T22:13:46.233Z,3.80
2023-03-06T22:16:14.425Z,3.80
2023-03-06T22:18:45.933Z,3.80
2023-03-06T22:21:15.700Z,3.80
2023-03-06T22:23:43.684Z,3.90
2023-03-06T22:26:13.490Z,3.90
2023-03-06T22:28:41.507Z,4.00
2023-03-06T22:31:16.190Z,4.00
2023-03-06T22:33:43.617Z,4.00
2023-03-06T22:36:14.300Z,4.00
2023-03-06T22:38:43.666Z,4.00
2023-03-06T22:41:12.369Z,4.00
2023-03-06T22:43:39.811Z,4.10
2023-03-06T22:46:18.425Z,4.10
2023-03-06T22:48:45.785Z,4.10
2023-03-06T22:51:15.910Z,4.20
2023-03-06T22:53:43.632Z,4.20
2023-03-06T22:56:13.502Z,4.20
2023-03-06T22:58:40.970Z,4.20
2023-03-06T23:01:11.072Z,4.20
2023-03-06T23:03:40.638Z,4.20
2023-03-06T23:06:28.558Z,4.20
2023-03-06T23:09:01.619Z,4.20
2023-03-06T23:11:29.861Z,4.20
2023-03-06T23:14:17.364Z,4.20
2023-03-06T23:17:04.768Z,4.30
2023-03-06T23:19:50.727Z,4.30
2023-03-06T23:22:36.297Z,4.30
2023-03-06T23:25:22.222Z,4.30
2023-03-06T23:27:49.497Z,4.30
2023-03-06T23:30:16.967Z,4.30
2023-03-06T23:32:45.926Z,4.30
2023-03-06T23:35:13.929Z,4.30
2023-03-06T23:37:41.221Z,4.30
2023-03-06T23:40:09.471Z,4.30
2023-03-06T23:42:36.925Z,4.40
2023-03-06T23:45:05.189Z,4.40
2023-03-06T23:47:33.651Z,4.40
2023-03-06T23:50:01.012Z,4.40
2023-03-06T23:52:28.289Z,4.40
2023-03-06T23:54:55.527Z,4.40
2023-03-06T23:57:22.795Z,4.40
2023-03-06T23:59:50.021Z,4.40
